createdAt,value
2022-12-15T00:00:25.961Z,27.90
2022-12-15T00:04:46.364Z,33.53
2022-12-15T00:09:14.067Z,32.65
2022-12-15T00:13:35.542Z,24.60
2022-12-15T00:17:57.023Z,25.58
2022-12-15T00:22:17.756Z,36.38
2022-12-15T00:26:39.607Z,29.02
2022-12-15T00:31:02.451Z,33.73
2022-12-15T00:35:24.545Z,27.98
2022-12-15T00:39:28.280Z,34.78
2022-12-15T00:43:36.862Z,30.05
2022-12-15T00:47:40.375Z,35.30
2022-12-15T00:52:00.971Z,21.60
2022-12-15T00:56:22.182Z,25.60
2022-12-15T01:00:44.505Z,22.63
2022-12-15T01:05:05.387Z,32.00
2022-12-15T01:09:28.149Z,28.30
2022-12-15T01:18:12.392Z,30.33
2022-12-15T01:22:15.851Z,29.75
2022-12-15T01:26:19.112Z,29.63
2022-12-15T01:30:24.574Z,32.70
2022-12-15T01:34:29.505Z,29.35
2022-12-15T01:38:33.037Z,34.13
2022-12-15T01:42:36.109Z,32.30
2022-12-15T01:46:39.659Z,38.08
2022-12-15T01:50:48.312Z,28.15
2022-12-15T01:54:55.980Z,27.83
2022-12-15T01:59:03.380Z,35.30
2022-12-15T02:03:08.414Z,26.48
2022-12-15T02:07:15.447Z,30.17
2022-12-15T02:12:02.672Z,38.55
2022-12-15T02:16:14.360Z,31.08
2022-12-15T02:20:42.425Z,38.83
2022-12-15T02:29:58.553Z,31.65
2022-12-15T02:34:10.282Z,41.00
2022-12-15T02:38:14.161Z,40.93
2022-12-15T02:42:17.670Z,29.88
2022-12-15T02:46:28.143Z,31.60
2022-12-15T02:50:50.660Z,37.67
2022-12-15T02:55:10.107Z,34.50
2022-12-15T02:59:21.335Z,31.08
2022-12-15T03:03:25.992Z,36.65
2022-12-15T03:07:30.756Z,30.00
2022-12-15T03:11:34.903Z,26.00
2022-12-15T03:15:38.417Z,33.65
2022-12-15T03:19:42.046Z,36.72
2022-12-15T03:23:46.873Z,35.47
2022-12-15T03:27:50.444Z,27.95
2022-12-15T03:31:54.043Z,34.75
2022-12-15T03:35:57.930Z,35.17
2022-12-15T03:40:02.915Z,31.60
2022-12-15T03:44:06.376Z,34.60
2022-12-15T03:48:09.942Z,37.85
2022-12-15T03:52:13.758Z,30.00
2022-12-15T03:56:19.476Z,29.38
2022-12-15T04:00:24.915Z,34.67
2022-12-15T04:04:28.413Z,40.10
2022-12-15T04:08:32.005Z,31.50
2022-12-15T04:12:39.748Z,29.58
2022-12-15T04:16:43.289Z,28.10
2022-12-15T04:20:46.319Z,26.58
2022-12-15T04:25:11.472Z,26.17
2022-12-15T04:29:33.776Z,39.17
2022-12-15T04:33:55.724Z,33.65
2022-12-15T04:38:16.964Z,27.67
2022-12-15T04:42:37.791Z,38.20
2022-12-15T04:47:02.573Z,26.60
2022-12-15T04:51:24.183Z,33.90
2022-12-15T04:55:45.349Z,27.92
2022-12-15T05:00:06.373Z,33.40
2022-12-15T05:04:28.415Z,25.23
2022-12-15T05:08:50.132Z,29.80
2022-12-15T05:13:10.873Z,30.83
2022-12-15T05:17:33.562Z,28.35
2022-12-15T05:21:56.574Z,33.75
2022-12-15T05:26:18.355Z,36.67
2022-12-15T05:30:39.474Z,36.67
2022-12-15T05:34:43.242Z,30.00
2022-12-15T05:38:50.431Z,32.22
2022-12-15T05:42:54.088Z,35.47
2022-12-15T05:46:58.171Z,29.65
2022-12-15T05:51:05.445Z,31.88
2022-12-15T05:55:10.938Z,35.70
2022-12-15T05:59:15.587Z,40.38
2022-12-15T06:03:19.039Z,38.88
2022-12-15T06:07:22.085Z,33.28
2022-12-15T06:11:27.694Z,32.47
2022-12-15T06:15:31.140Z,34.20
2022-12-15T06:19:34.119Z,29.42
2022-12-15T06:23:38.384Z,32.10
2022-12-15T06:27:43.330Z,32.65
2022-12-15T06:31:46.930Z,29.30
2022-12-15T06:35:53.969Z,38.55
2022-12-15T06:40:01.101Z,32.92
2022-12-15T06:44:06.528Z,30.65
2022-12-15T06:48:10.269Z,36.85
2022-12-15T06:52:14.105Z,42.90
2022-12-15T06:56:23.352Z,36.30
2022-12-15T07:00:32.736Z,37.53
2022-12-15T07:04:36.300Z,33.88
2022-12-15T07:08:41.878Z,35.92
2022-12-15T07:12:45.807Z,36.60
2022-12-15T07:16:50.312Z,35.38
2022-12-15T07:20:53.928Z,34.13
2022-12-15T07:24:57.616Z,38.58
2022-12-15T07:29:01.301Z,39.00
2022-12-15T07:33:06.613Z,34.80
2022-12-15T07:37:10.304Z,32.75
2022-12-15T07:41:14.020Z,36.83
2022-12-15T07:45:17.605Z,39.38
2022-12-15T07:49:22.950Z,34.75
2022-12-15T07:53:28.532Z,40.60
2022-12-15T07:57:32.987Z,35.38
2022-12-15T08:01:37.145Z,37.90
2022-12-15T08:05:42.030Z,32.22
2022-12-15T08:09:47.847Z,32.35
2022-12-15T08:14:02.570Z,47.60
2022-12-15T08:18:09.250Z,32.10
2022-12-15T08:22:15.731Z,32.85
2022-12-15T08:26:23.806Z,32.00
2022-12-15T08:30:30.431Z,32.80
2022-12-15T08:34:35.977Z,37.88
2022-12-15T08:38:42.778Z,34.40
2022-12-15T08:42:46.535Z,41.58
2022-12-15T08:46:49.597Z,35.65
2022-12-15T08:50:52.989Z,37.40
2022-12-15T08:54:58.033Z,39.70
2022-12-15T08:59:03.288Z,37.90
2022-12-15T09:03:06.801Z,37.95
2022-12-15T09:07:10.366Z,33.70
2022-12-15T09:11:15.803Z,32.03
2022-12-15T09:15:19.432Z,27.35
2022-12-15T09:19:22.926Z,36.80
2022-12-15T09:23:26.245Z,36.28
2022-12-15T09:27:31.785Z,39.10
2022-12-15T09:31:39.537Z,32.35
2022-12-15T09:35:42.860Z,37.72
2022-12-15T09:39:46.517Z,35.85
2022-12-15T09:43:56.721Z,40.60
2022-12-15T09:48:05.118Z,28.80
2022-12-15T09:52:14.171Z,35.35
2022-12-15T09:56:24.739Z,38.17
2022-12-15T10:00:34.366Z,38.13
2022-12-15T10:04:51.309Z,30.42
2022-12-15T10:08:57.417Z,40.22
2022-12-15T10:13:09.079Z,34.60
2022-12-15T10:17:23.244Z,34.10
2022-12-15T10:21:30.660Z,39.20
2022-12-15T11:24:09.476Z,38.08
2022-12-15T11:28:18.341Z,41.50
2022-12-15T11:32:25.088Z,45.67
2022-12-15T11:36:57.848Z,42.90
2022-12-15T11:41:10.587Z,45.75
2022-12-15T11:49:47.876Z,40.75
2022-12-15T11:54:08.167Z,49.35
2022-12-15T11:58:48.601Z,39.20
2022-12-15T12:03:03.439Z,36.65
2022-12-15T12:07:19.565Z,47.42
2022-12-15T12:11:28.145Z,55.83
2022-12-15T12:15:38.791Z,48.33
2022-12-15T12:19:50.776Z,43.03
2022-12-15T12:24:01.465Z,50.08
2022-12-15T12:28:11.757Z,47.25
2022-12-15T12:32:20.778Z,41.60
2022-12-15T12:36:25.485Z,50.72
2022-12-15T12:40:37.242Z,44.58
2022-12-15T12:44:40.491Z,58.22
2022-12-15T12:48:52.256Z,54.50
2022-12-15T12:52:59.568Z,63.45
2022-12-15T12:57:03.618Z,61.47
2022-12-15T13:01:20.322Z,58.53
2022-12-15T13:05:30.047Z,52.38
2022-12-15T13:09:42.814Z,57.17
2022-12-15T13:17:59.740Z,48.63
2022-12-15T13:22:03.007Z,47.53
2022-12-15T13:26:21.339Z,68.70
2022-12-15T13:30:24.851Z,51.47
2022-12-15T13:34:29.642Z,57.63
2022-12-15T13:38:54.331Z,38.50
2022-12-15T13:43:01.349Z,46.58
2022-12-15T13:47:11.004Z,42.90
2022-12-15T13:51:27.031Z,41.45
2022-12-15T13:55:37.514Z,36.65
2022-12-15T13:59:49.452Z,42.65
2022-12-15T14:04:07.401Z,38.03
2022-12-15T14:08:16.282Z,40.22
2022-12-15T14:12:19.602Z,40.90
2022-12-15T14:16:26.134Z,41.42
2022-12-15T14:20:32.038Z,38.67
2022-12-15T14:24:40.262Z,45.28
2022-12-15T14:28:45.816Z,38.58
2022-12-15T14:32:54.675Z,39.45
2022-12-15T14:36:59.930Z,42.15
2022-12-15T14:41:06.208Z,50.15
2022-12-15T14:45:20.279Z,46.45
2022-12-15T14:49:28.422Z,49.30
2022-12-15T14:53:34.914Z,47.25
2022-12-15T14:57:46.671Z,54.45
2022-12-15T15:01:58.516Z,38.20
2022-12-15T15:06:08.608Z,47.83
2022-12-15T15:10:24.629Z,47.63
2022-12-15T15:14:32.300Z,38.85
2022-12-15T15:18:35.610Z,48.90
2022-12-15T15:22:42.789Z,47.75
2022-12-15T15:26:45.929Z,42.97
2022-12-15T15:30:51.058Z,46.75
2022-12-15T15:34:59.381Z,45.25
2022-12-15T15:39:13.214Z,41.58
2022-12-15T15:43:17.798Z,52.50
2022-12-15T15:47:26.070Z,48.42
2022-12-15T15:51:31.403Z,40.50
2022-12-15T15:55:39.872Z,48.70
2022-12-15T15:59:44.284Z,48.33
2022-12-15T16:03:47.791Z,47.58
2022-12-15T16:07:51.810Z,42.13
2022-12-15T16:11:56.583Z,65.43
2022-12-15T16:15:59.991Z,52.72
2022-12-15T16:20:03.023Z,53.28
2022-12-15T16:24:10.116Z,52.80
2022-12-15T16:28:17.271Z,43.78
2022-12-15T16:32:20.505Z,44.33
2022-12-15T16:36:23.827Z,47.30
2022-12-15T16:40:31.271Z,55.85
2022-12-15T16:44:36.121Z,53.25
2022-12-15T16:48:39.397Z,51.17
2022-12-15T16:52:44.424Z,45.67
2022-12-15T16:56:47.706Z,55.30
2022-12-15T17:00:53.871Z,61.28
2022-12-15T17:04:57.263Z,54.00
2022-12-15T17:09:00.528Z,41.78
2022-12-15T17:13:08.154Z,41.03
2022-12-15T17:17:15.874Z,43.08
2022-12-15T17:21:22.107Z,50.25
2022-12-15T17:26:00.858Z,55.58
2022-12-15T17:29:51.036Z,45.83
2022-12-15T17:33:55.477Z,64.60
2022-12-15T17:37:58.786Z,43.33
2022-12-15T17:42:03.166Z,57.08
2022-12-15T17:46:07.017Z,46.92
2022-12-15T17:50:14.941Z,48.17
2022-12-15T17:54:20.080Z,47.53
2022-12-15T17:58:26.636Z,43.65
2022-12-15T18:02:30.084Z,43.97
2022-12-15T18:06:34.742Z,57.33
2022-12-15T18:10:40.994Z,51.08
2022-12-15T18:14:44.642Z,52.67
2022-12-15T18:18:47.966Z,50.88
2022-12-15T18:22:54.186Z,40.92
2022-12-15T18:26:57.247Z,43.38
2022-12-15T18:31:04.430Z,49.53
2022-12-15T18:35:16.197Z,57.08
2022-12-15T18:39:24.059Z,48.00
2022-12-15T18:43:30.649Z,45.03
2022-12-15T18:47:34.491Z,37.35
2022-12-15T18:51:37.886Z,43.28
2022-12-15T18:55:42.928Z,44.05
2022-12-15T18:59:46.225Z,46.05
2022-12-15T19:03:49.636Z,40.63
2022-12-15T19:07:53.066Z,45.65
2022-12-15T19:12:14.584Z,58.67
2022-12-15T19:16:20.265Z,45.97
2022-12-15T19:20:40.615Z,41.78
2022-12-15T19:24:56.240Z,59.30
2022-12-15T19:29:01.625Z,53.88
2022-12-15T19:33:05.868Z,55.85
2022-12-15T19:37:15.710Z,49.72
2022-12-15T19:41:19.802Z,53.10
2022-12-15T19:45:27.861Z,40.95
2022-12-15T19:49:32.109Z,47.47
2022-12-15T19:53:36.915Z,44.70
2022-12-15T19:57:42.377Z,51.92
2022-12-15T20:01:47.866Z,54.63
2022-12-15T20:10:29.367Z,55.47
2022-12-15T20:14:35.149Z,57.47
2022-12-15T20:18:40.997Z,50.85
2022-12-15T20:22:45.535Z,50.80
2022-12-15T20:26:56.564Z,49.30
2022-12-15T20:31:00.435Z,52.28
2022-12-15T20:35:05.690Z,57.28
2022-12-15T20:39:20.794Z,59.65
2022-12-15T20:43:31.397Z,46.70
2022-12-15T20:47:36.721Z,58.17
2022-12-15T20:51:41.880Z,50.28
2022-12-15T20:55:45.428Z,47.10
2022-12-15T20:59:49.601Z,47.78
2022-12-15T21:03:55.525Z,44.53
2022-12-15T21:08:00.182Z,53.67
2022-12-15T21:12:09.033Z,45.97
2022-12-15T21:16:17.130Z,51.15
2022-12-15T21:20:21.666Z,50.65
2022-12-15T21:24:29.510Z,42.97
2022-12-15T21:28:33.607Z,42.60
2022-12-15T21:32:37.317Z,52.25
2022-12-15T21:36:43.425Z,49.30
2022-12-15T21:40:48.188Z,51.13
2022-12-15T21:44:51.698Z,43.22
2022-12-15T21:49:12.412Z,43.47
2022-12-15T21:53:17.924Z,47.22
2022-12-15T21:57:22.702Z,49.45
2022-12-15T22:01:30.666Z,43.55
2022-12-15T22:05:34.222Z,46.97
2022-12-15T22:09:37.485Z,45.28
2022-12-15T22:13:42.338Z,43.30
2022-12-15T22:17:46.147Z,50.10
2022-12-15T22:21:50.261Z,45.95
2022-12-15T22:25:57.064Z,47.03
2022-12-15T22:30:01.917Z,47.45
2022-12-15T22:34:13.971Z,52.28
2022-12-15T22:38:18.721Z,47.72
2022-12-15T22:42:22.039Z,54.83
2022-12-15T22:46:26.769Z,50.38
2022-12-15T22:50:30.365Z,45.58
2022-12-15T22:54:33.734Z,51.00
2022-12-15T22:58:43.389Z,52.70
2022-12-15T23:02:48.731Z,46.20
2022-12-15T23:06:52.308Z,57.92
2022-12-15T23:11:13.190Z,60.63
2022-12-15T23:15:34.286Z,49.05
2022-12-15T23:19:39.189Z,48.60
2022-12-15T23:23:42.714Z,47.40
2022-12-15T23:27:46.071Z,59.05
2022-12-15T23:31:50.046Z,33.15
2022-12-15T23:35:56.347Z,52.92
2022-12-15T23:39:59.537Z,41.80
2022-12-15T23:44:03.211Z,39.03
2022-12-15T23:48:07.642Z,48.38
2022-12-15T23:52:12.550Z,46.38
2022-12-15T23:56:17.864Z,36.45
